Corrour, United Kingdom
Current Conditions -  °F | °C
As of 1:20 PM on Monday 20 Oct 2014 (Local Time) from EGEO Reporting Station
Light Rain Light Rain  
Wind Chill: 55°   Ceiling: 2000
Heat Index: 55°   Visibility: 6mi
Dew Point: 50°   Wind: 13mph
Humidity: 82%   Direction: 210°SSW
Pressure: 29.68"   Gusts: NA
Location:  56.79°N, 4.6°W
Report Text: EGEO 201220Z 21011KT 9999 -RA SCT014 BKN020 13/10 Q1005
Loading
Personal Weather Stations






























Interactive Weather Map
Tropical Storm Tracking
New forecast layout! Learn more

10-Day Weather Forecast

Advertisements
Track Severe Weather on mobile